Time;durP1;ratioP1;P1;durP2;ratioP2;P2;SDS_P1;SDS_P2;PMS_P1;PMS_P2;Temp;Humidity;BMP_temperature;BMP_pressure;BME280_temperature;BME280_humidity;BME280_pressure;Samples;Min_cycle;Max_cycle;Signal;HPM_P1;HPM_P2
2022/01/15 00:00:34;;;;;;;;;;;;;;;;;;5055508;28;19913;-78
2022/01/15 00:02:59;;;;;;;;;;;;;;;;;;5055064;28;20357;-80
2022/01/15 00:05:30;;;;;;;;;;;;;;;;;;5055676;28;19967;-79
2022/01/15 00:07:55;;;;;;;;;;;;;;;;;;5056077;28;19916;-79
2022/01/15 00:10:21;;;;;;;;;;;;;;;;;;5056171;28;20356;-79
2022/01/15 00:12:46;;;;;;;;;;;;;;;;;;5055929;28;19956;-79
2022/01/15 00:15:17;;;;;;;;;;;;;;;;;;5055162;28;20456;-79
2022/01/15 00:20:12;;;;;;;;;;;;;;;;;;5054528;28;19971;-80
2022/01/15 00:22:37;;;;;;;;;;;;;;;;;;5055455;28;19921;-80
2022/01/15 00:25:03;;;;;;;;;;;;;;;;;;5055648;28;20003;-81
2022/01/15 00:27:28;;;;;;;;;;;;;;;;;;5055354;28;19978;-82
2022/01/15 00:29:53;;;;;;;;;;;;;;;;;;5054813;28;19916;-79
2022/01/15 00:32:19;;;;;;;;;;;;;;;;;;5054324;28;19913;-83
2022/01/15 00:34:44;;;;;;;;;;;;;;;;;;5052637;28;19932;-81
2022/01/15 00:37:15;;;;;;;;;;;;;;;;;;5054482;28;19924;-81
2022/01/15 00:39:42;;;;;;;;;;;;;;;;;;5055097;28;19991;-81
2022/01/15 00:42:09;;;;;;;;;;;;;;;;;;5054205;28;19970;-82
2022/01/15 00:44:36;;;;;;;;;;;;;;;;;;5055989;28;20254;-82
2022/01/15 00:47:01;;;;;;;;;;;;;;;;;;5055090;28;19932;-82
2022/01/15 00:49:26;;;;;;;;;;;;;;;;;;5053862;28;19939;-81
2022/01/15 00:51:51;;;;;;;;;;;;;;;;;;5055173;28;20345;-82
2022/01/15 00:54:16;;;;;;;;;;;;;;;;;;5054328;28;19923;-82
2022/01/15 00:56:42;;;;;;;;;;;;;;;;;;5054742;28;19913;-81
2022/01/15 00:59:07;;;;;;;;;;;;;;;;;;5053586;28;19957;-82
2022/01/15 01:01:32;;;;;;;;;;;;;;;;;;5055005;28;19924;-81
2022/01/15 01:03:58;;;;;;;;;;;;;;;;;;5055432;28;19916;-81
2022/01/15 01:06:23;;;;;;;;;;;;;;;;;;5054059;28;19916;-80
2022/01/15 01:08:49;;;;;;;;;;;;;;;;;;5055004;28;19916;-81
2022/01/15 01:11:17;;;;;;;;;;;;;;;;;;5048546;28;19917;-81
2022/01/15 01:24:25;;;;;;;;;;;;;;;;;;5053455;28;19966;-82
2022/01/15 01:29:31;;;;;;;;;;;;;;;;;;5053711;28;19959;-82
2022/01/15 01:34:24;;;;;;;;;;;;;;;;;;5054401;28;19927;-81
2022/01/15 01:39:19;;;;;;;;;;;;;;;;;;5054814;28;20250;-81
2022/01/15 01:42:03;;;;;;;;;;;;;;;;;;5052395;28;19974;-80
2022/01/15 01:44:28;;;;;;;;;;;;;;;;;;5054415;28;19913;-81
2022/01/15 01:47:02;;;;;;;;;;;;;;;;;;5052563;28;20409;-81
2022/01/15 01:49:27;;;;;;;;;;;;;;;;;;5054069;28;19966;-79
2022/01/15 01:51:53;;;;;;;;;;;;;;;;;;5063071;28;19912;-81
2022/01/15 01:54:18;;;;;;;;;;;;;;;;;;5053110;28;19913;-81
2022/01/15 01:56:43;;;;;;;;;;;;;;;;;;5053932;28;19921;-81
2022/01/15 01:59:09;;;;;;;;;;;;;;;;;;5053959;28;19924;-80
2022/01/15 02:01:34;;;;;;;;;;;;;;;;;;5054275;28;19924;-82
2022/01/15 02:04:00;;;;;;;;;;;;;;;;;;5053982;28;19931;-81
2022/01/15 02:06:25;;;;;;;;;;;;;;;;;;5034459;28;19921;-81
2022/01/15 02:08:51;;;;;;;;;;;;;;;;;;5053067;28;20024;-81
2022/01/15 02:11:16;;;;;;;;;;;;;;;;;;5036246;28;20007;-81
2022/01/15 02:13:44;;;;;;;;;;;;;;;;;;5054109;28;19927;-81
2022/01/15 02:16:10;;;;;;;;;;;;;;;;;;5053372;28;19925;-81
2022/01/15 02:18:36;;;;;;;;;;;;;;;;;;5052978;28;20242;-81
2022/01/15 02:23:45;;;;;;;;;;;;;;;;;;5053166;28;19917;-80
2022/01/15 02:26:15;;;;;;;;;;;;;;;;;;5049265;28;19924;-81
2022/01/15 02:28:42;;;;;;;;;;;;;;;;;;5050311;28;19916;-81
2022/01/15 02:31:11;;;;;;;;;;;;;;;;;;5053619;28;19975;-79
2022/01/15 02:33:37;;;;;;;;;;;;;;;;;;5053841;28;19921;-81
2022/01/15 02:36:06;;;;;;;;;;;;;;;;;;5052287;28;20297;-81
2022/01/15 02:38:31;;;;;;;;;;;;;;;;;;5056318;28;19920;-81
2022/01/15 02:40:56;;;;;;;;;;;;;;;;;;5056520;28;19965;-80
2022/01/15 02:43:28;;;;;;;;;;;;;;;;;;5056796;28;19966;-81
2022/01/15 02:45:57;;;;;;;;;;;;;;;;;;5057829;28;19932;-80
2022/01/15 02:48:26;;;;;;;;;;;;;;;;;;5052692;28;19925;-81
2022/01/15 02:50:51;;;;;;;;;;;;;;;;;;5059808;28;19920;-81
2022/01/15 02:53:17;;;;;;;;;;;;;;;;;;5056789;28;19995;-81
2022/01/15 02:55:43;;;;;;;;;;;;;;;;;;5056604;28;19935;-79
2022/01/15 02:58:08;;;;;;;;;;;;;;;;;;5052826;28;19931;-81
2022/01/15 03:00:33;;;;;;;;;;;;;;;;;;5038551;28;19959;-81
2022/01/15 03:02:58;;;;;;;;;;;;;;;;;;5038800;28;20004;-79
2022/01/15 03:05:24;;;;;;;;;;;;;;;;;;5055618;28;19932;-79
2022/01/15 03:07:49;;;;;;;;;;;;;;;;;;5049935;28;19970;-81
2022/01/15 03:10:14;;;;;;;;;;;;;;;;;;5056739;28;20356;-80
2022/01/15 03:12:42;;;;;;;;;;;;;;;;;;5056199;28;20410;-80
2022/01/15 03:15:17;;;;;;;;;;;;;;;;;;5056976;28;20242;-79
2022/01/15 03:17:43;;;;;;;;;;;;;;;;;;5057088;28;19913;-81
2022/01/15 03:20:11;;;;;;;;;;;;;;;;;;5057085;28;19931;-80
2022/01/15 03:22:37;;;;;;;;;;;;;;;;;;5055567;28;19920;-81
2022/01/15 03:25:02;;;;;;;;;;;;;;;;;;5056764;28;19921;-80
2022/01/15 03:27:29;;;;;;;;;;;;;;;;;;5056888;28;19921;-81
2022/01/15 03:29:55;;;;;;;;;;;;;;;;;;5056584;28;20416;-82
2022/01/15 03:32:20;;;;;;;;;;;;;;;;;;5057068;28;19974;-81
2022/01/15 03:34:46;;;;;;;;;;;;;;;;;;5050617;28;20004;-80
2022/01/15 03:37:11;;;;;;;;;;;;;;;;;;5039228;28;19920;-80
2022/01/15 03:39:38;;;;;;;;;;;;;;;;;;5056587;28;19921;-81
2022/01/15 03:42:03;;;;;;;;;;;;;;;;;;5055674;28;19913;-80
2022/01/15 03:44:28;;;;;;;;;;;;;;;;;;5053663;28;20027;-80
2022/01/15 03:46:53;;;;;;;;;;;;;;;;;;5056384;28;19948;-80
2022/01/15 03:49:19;;;;;;;;;;;;;;;;;;5055190;28;19916;-80
2022/01/15 03:51:44;;;;;;;;;;;;;;;;;;5056477;28;20262;-81
2022/01/15 03:54:09;;;;;;;;;;;;;;;;;;5056052;28;19925;-80
2022/01/15 03:56:36;;;;;;;;;;;;;;;;;;5056296;28;19917;-81
2022/01/15 03:59:02;;;;;;;;;;;;;;;;;;5056307;28;19999;-79
2022/01/15 04:01:27;;;;;;;;;;;;;;;;;;5056208;28;20016;-80
2022/01/15 04:03:54;;;;;;;;;;;;;;;;;;5055777;28;19924;-82
2022/01/15 04:06:19;;;;;;;;;;;;;;;;;;5056307;28;19916;-81
2022/01/15 04:08:45;;;;;;;;;;;;;;;;;;5056098;28;19919;-82
2022/01/15 04:11:15;;;;;;;;;;;;;;;;;;5055898;28;19970;-79
2022/01/15 04:13:40;;;;;;;;;;;;;;;;;;5055811;28;19936;-77
2022/01/15 04:16:05;;;;;;;;;;;;;;;;;;5054962;28;20251;-77
2022/01/15 04:18:39;;;;;;;;;;;;;;;;;;5055118;28;19923;-79
2022/01/15 04:21:05;;;;;;;;;;;;;;;;;;5055450;28;19924;-78
2022/01/15 04:23:32;;;;;;;;;;;;;;;;;;5055952;28;20270;-78
2022/01/15 04:25:57;;;;;;;;;;;;;;;;;;5055748;28;19929;-80
2022/01/15 04:28:22;;;;;;;;;;;;;;;;;;5055828;28;19928;-79
2022/01/15 04:30:48;;;;;;;;;;;;;;;;;;5054005;28;19916;-80
2022/01/15 04:33:14;;;;;;;;;;;;;;;;;;5043290;28;19925;-80
2022/01/15 04:35:41;;;;;;;;;;;;;;;;;;5055194;28;19923;-79
2022/01/15 04:38:11;;;;;;;;;;;;;;;;;;5053709;28;19988;-81
2022/01/15 04:40:36;;;;;;;;;;;;;;;;;;5055498;28;19940;-80
2022/01/15 04:43:01;;;;;;;;;;;;;;;;;;5055635;28;20369;-80
2022/01/15 04:45:26;;;;;;;;;;;;;;;;;;5055635;28;19974;-80
2022/01/15 04:47:54;;;;;;;;;;;;;;;;;;5054467;28;20008;-80
2022/01/15 04:50:21;;;;;;;;;;;;;;;;;;5055228;28;19931;-80
2022/01/15 04:52:46;;;;;;;;;;;;;;;;;;5055361;28;19919;-79
2022/01/15 04:55:11;;;;;;;;;;;;;;;;;;5054667;28;20000;-82
2022/01/15 04:57:41;;;;;;;;;;;;;;;;;;5055298;28;19977;-79
2022/01/15 05:00:11;;;;;;;;;;;;;;;;;;5054612;28;19920;-79
2022/01/15 05:02:37;;;;;;;;;;;;;;;;;;5036081;28;19921;-79
2022/01/15 05:05:05;;;;;;;;;;;;;;;;;;5051264;28;19917;-80
2022/01/15 05:07:30;;;;;;;;;;;;;;;;;;5054804;28;19928;-79
2022/01/15 05:09:56;;;;;;;;;;;;;;;;;;5053698;28;19922;-80
2022/01/15 05:12:32;;;;;;;;;;;;;;;;;;5054369;28;19913;-80
2022/01/15 05:14:57;;;;;;;;;;;;;;;;;;5054645;28;19920;-79
2022/01/15 05:17:25;;;;;;;;;;;;;;;;;;5055012;28;19912;-80
2022/01/15 05:19:50;;;;;;;;;;;;;;;;;;5054318;28;19917;-79
2022/01/15 05:22:16;;;;;;;;;;;;;;;;;;5053955;28;20219;-80
2022/01/15 05:24:41;;;;;;;;;;;;;;;;;;5053029;28;19917;-80
2022/01/15 05:27:06;;;;;;;;;;;;;;;;;;5053930;28;19928;-80
2022/01/15 05:29:32;;;;;;;;;;;;;;;;;;5054457;28;19974;-79
2022/01/15 05:32:01;;;;;;;;;;;;;;;;;;5054376;28;19913;-80
2022/01/15 05:34:27;;;;;;;;;;;;;;;;;;5054343;28;19921;-80
2022/01/15 05:36:52;;;;;;;;;;;;;;;;;;5053358;28;20342;-80
2022/01/15 05:39:17;;;;;;;;;;;;;;;;;;5054376;28;19917;-80
2022/01/15 05:41:42;;;;;;;;;;;;;;;;;;5054647;28;20250;-80
2022/01/15 05:44:07;;;;;;;;;;;;;;;;;;5054346;28;19974;-80
2022/01/15 05:46:33;;;;;;;;;;;;;;;;;;5052893;28;19952;-80
2022/01/15 05:48:59;;;;;;;;;;;;;;;;;;5054394;28;19917;-80
2022/01/15 05:51:29;;;;;;;;;;;;;;;;;;5036527;28;19913;-79
2022/01/15 05:53:57;;;;;;;;;;;;;;;;;;5053162;28;19917;-79
2022/01/15 05:56:22;;;;;;;;;;;;;;;;;;5053932;28;19917;-80
2022/01/15 05:58:47;;;;;;;;;;;;;;;;;;5054359;28;19967;-79
2022/01/15 06:01:15;;;;;;;;;;;;;;;;;;5052571;28;19924;-79
2022/01/15 06:03:40;;;;;;;;;;;;;;;;;;5053280;28;19912;-80
2022/01/15 06:06:05;;;;;;;;;;;;;;;;;;5052619;28;20376;-80
2022/01/15 06:08:30;;;;;;;;;;;;;;;;;;5053202;28;19913;-80
2022/01/15 06:10:55;;;;;;;;;;;;;;;;;;5053452;28;19928;-79
2022/01/15 06:13:21;;;;;;;;;;;;;;;;;;5053772;28;19959;-79
2022/01/15 06:15:46;;;;;;;;;;;;;;;;;;5053543;28;19939;-80
2022/01/15 06:18:14;;;;;;;;;;;;;;;;;;5053751;28;20273;-79
2022/01/15 06:20:39;;;;;;;;;;;;;;;;;;5053969;28;19917;-80
2022/01/15 06:23:07;;;;;;;;;;;;;;;;;;5053265;28;19913;-80
2022/01/15 06:25:32;;;;;;;;;;;;;;;;;;5054163;28;19939;-78
2022/01/15 06:27:57;;;;;;;;;;;;;;;;;;5053695;28;19996;-79
2022/01/15 06:30:25;;;;;;;;;;;;;;;;;;5054151;28;19913;-79
2022/01/15 06:32:50;;;;;;;;;;;;;;;;;;5054423;28;19946;-79
2022/01/15 06:35:17;;;;;;;;;;;;;;;;;;5065326;28;19992;-79
2022/01/15 06:37:43;;;;;;;;;;;;;;;;;;5064937;28;19913;-80
2022/01/15 06:40:08;;;;;;;;;;;;;;;;;;5064369;28;19912;-79
2022/01/15 06:42:34;;;;;;;;;;;;;;;;;;5053958;28;20377;-79
2022/01/15 06:44:59;;;;;;;;;;;;;;;;;;5051274;28;19940;-80
2022/01/15 06:47:25;;;;;;;;;;;;;;;;;;5053691;28;19916;-79
2022/01/15 06:49:50;;;;;;;;;;;;;;;;;;5050672;28;19927;-80
2022/01/15 06:52:15;;;;;;;;;;;;;;;;;;5054779;28;20326;-80
2022/01/15 06:54:40;;;;;;;;;;;;;;;;;;5050161;28;19940;-80
2022/01/15 06:57:06;;;;;;;;;;;;;;;;;;5052705;28;19924;-80
2022/01/15 06:59:31;;;;;;;;;;;;;;;;;;5053424;28;19974;-79
2022/01/15 07:01:56;;;;;;;;;;;;;;;;;;5053136;28;19920;-78
2022/01/15 07:04:21;;;;;;;;;;;;;;;;;;5053148;28;19917;-80
2022/01/15 07:06:46;;;;;;;;;;;;;;;;;;5052836;28;19982;-78
2022/01/15 07:09:12;;;;;;;;;;;;;;;;;;5053232;28;19917;-79
2022/01/15 07:11:37;;;;;;;;;;;;;;;;;;5053187;28;20242;-79
2022/01/15 07:14:02;;;;;;;;;;;;;;;;;;5052516;28;20349;-80
2022/01/15 07:16:30;;;;;;;;;;;;;;;;;;5053274;28;19917;-81
2022/01/15 07:18:55;;;;;;;;;;;;;;;;;;5053076;28;19916;-81
2022/01/15 07:21:25;;;;;;;;;;;;;;;;;;5052783;28;20292;-80
2022/01/15 07:23:52;;;;;;;;;;;;;;;;;;5054115;28;19912;-78
2022/01/15 07:26:18;;;;;;;;;;;;;;;;;;5056210;28;19921;-80
2022/01/15 07:28:43;;;;;;;;;;;;;;;;;;5056722;28;20309;-78
2022/01/15 07:31:08;;;;;;;;;;;;;;;;;;5055671;28;19916;-78
2022/01/15 07:33:41;;;;;;;;;;;;;;;;;;5055601;28;19925;-79
2022/01/15 07:36:07;;;;;;;;;;;;;;;;;;5055473;28;19917;-80
2022/01/15 07:38:32;;;;;;;;;;;;;;;;;;5055656;28;19970;-81
2022/01/15 07:40:58;;;;;;;;;;;;;;;;;;5055495;28;19913;-80
2022/01/15 07:43:27;;;;;;;;;;;;;;;;;;5050225;28;19913;-80
2022/01/15 07:45:52;;;;;;;;;;;;;;;;;;5052459;28;19950;-80
2022/01/15 07:48:17;;;;;;;;;;;;;;;;;;5055536;28;20000;-81
2022/01/15 07:50:43;;;;;;;;;;;;;;;;;;5059363;28;19913;-80
2022/01/15 07:53:08;;;;;;;;;;;;;;;;;;5055250;28;19967;-80
2022/01/15 07:55:33;;;;;;;;;;;;;;;;;;5056141;28;19917;-79
2022/01/15 07:57:58;;;;;;;;;;;;;;;;;;5056243;28;19978;-78
2022/01/15 08:00:24;;;;;;;;;;;;;;;;;;5038297;28;19965;-79
2022/01/15 08:02:49;;;;;;;;;;;;;;;;;;5055916;28;19960;-80
2022/01/15 08:05:14;;;;;;;;;;;;;;;;;;5055914;28;19917;-79
2022/01/15 08:07:43;;;;;;;;;;;;;;;;;;5055164;28;19921;-79
2022/01/15 08:10:09;;;;;;;;;;;;;;;;;;5055048;28;21400;-80
2022/01/15 08:12:34;;;;;;;;;;;;;;;;;;5056122;28;19934;-80
2022/01/15 08:15:04;;;;;;;;;;;;;;;;;;5054764;28;19958;-80
2022/01/15 08:17:30;;;;;;;;;;;;;;;;;;5056578;28;19945;-80
2022/01/15 08:19:58;;;;;;;;;;;;;;;;;;5054522;28;19952;-79
2022/01/15 08:22:23;;;;;;;;;;;;;;;;;;5056021;28;19923;-80
2022/01/15 08:24:50;;;;;;;;;;;;;;;;;;5056154;28;19913;-80
2022/01/15 08:27:17;;;;;;;;;;;;;;;;;;5055870;28;19920;-80
2022/01/15 08:29:42;;;;;;;;;;;;;;;;;;5055768;28;19952;-80
2022/01/15 08:32:08;;;;;;;;;;;;;;;;;;5055808;28;19960;-80
2022/01/15 08:34:33;;;;;;;;;;;;;;;;;;5055381;28;19912;-80
2022/01/15 08:36:58;;;;;;;;;;;;;;;;;;5054827;28;19917;-80
2022/01/15 08:39:23;;;;;;;;;;;;;;;;;;5051667;28;19920;-80
2022/01/15 08:41:49;;;;;;;;;;;;;;;;;;5055664;28;20358;-80
2022/01/15 08:44:15;;;;;;;;;;;;;;;;;;5054169;28;19927;-80
2022/01/15 08:46:40;;;;;;;;;;;;;;;;;;5052492;28;19939;-79
2022/01/15 08:49:05;;;;;;;;;;;;;;;;;;5054372;28;19924;-79
2022/01/15 08:51:30;;;;;;;;;;;;;;;;;;5056582;28;19919;-80
2022/01/15 08:53:55;;;;;;;;;;;;;;;;;;5054660;28;19917;-80
2022/01/15 08:56:21;;;;;;;;;;;;;;;;;;5055343;28;20356;-80
2022/01/15 08:58:46;;;;;;;;;;;;;;;;;;5055099;28;19924;-79
2022/01/15 09:01:13;;;;;;;;;;;;;;;;;;5051344;28;20492;-79
2022/01/15 09:03:40;;;;;;;;;;;;;;;;;;5052627;28;19917;-82
2022/01/15 09:06:05;;;;;;;;;;;;;;;;;;5054640;28;19935;-80
2022/01/15 09:08:30;;;;;;;;;;;;;;;;;;5054794;28;19991;-80
2022/01/15 09:10:55;;;;;;;;;;;;;;;;;;5037007;28;20011;-79
2022/01/15 09:13:21;;;;;;;;;;;;;;;;;;5054812;28;20463;-79
2022/01/15 09:15:46;;;;;;;;;;;;;;;;;;5053261;28;19921;-78
2022/01/15 09:18:15;;;;;;;;;;;;;;;;;;5054654;28;19917;-78
2022/01/15 09:20:40;;;;;;;;;;;;;;;;;;5054392;28;19917;-79
2022/01/15 09:23:05;;;;;;;;;;;;;;;;;;5048009;28;19927;-78
2022/01/15 09:25:31;;;;;;;;;;;;;;;;;;5049211;28;19936;-79
2022/01/15 09:30:39;;;;;;;;;;;;;;;;;;5047677;28;19928;-79
2022/01/15 09:33:05;;;;;;;;;;;;;;;;;;5050117;28;19913;-79
2022/01/15 09:35:31;;;;;;;;;;;;;;;;;;5050103;28;20337;-79
2022/01/15 09:37:57;;;;;;;;;;;;;;;;;;5050519;28;20350;-80
2022/01/15 09:40:23;;;;;;;;;;;;;;;;;;5052135;28;19913;-79
2022/01/15 09:42:49;;;;;;;;;;;;;;;;;;5050297;28;20502;-79
2022/01/15 09:45:15;;;;;;;;;;;;;;;;;;5061444;28;19917;-78
2022/01/15 09:47:41;;;;;;;;;;;;;;;;;;5052742;28;20003;-79
2022/01/15 09:50:10;;;;;;;;;;;;;;;;;;5049307;28;20374;-80
2022/01/15 09:52:36;;;;;;;;;;;;;;;;;;5050447;28;20015;-80
2022/01/15 09:55:02;;;;;;;;;;;;;;;;;;5053526;28;20434;-79
2022/01/15 09:57:27;;;;;;;;;;;;;;;;;;5050030;28;19917;-79
2022/01/15 09:59:53;;;;;;;;;;;;;;;;;;5053264;28;20262;-80
2022/01/15 10:02:20;;;;;;;;;;;;;;;;;;5046655;28;19913;-80
2022/01/15 10:04:46;;;;;;;;;;;;;;;;;;5052416;28;19917;-79
2022/01/15 10:07:17;;;;;;;;;;;;;;;;;;5052136;28;19963;-80
2022/01/15 10:09:43;;;;;;;;;;;;;;;;;;5048766;28;19986;-79
2022/01/15 10:12:36;;;;;;;;;;;;;;;;;;5052125;28;19954;-79
2022/01/15 10:15:17;;;;;;;;;;;;;;;;;;5046969;28;19921;-79
2022/01/15 10:17:43;;;;;;;;;;;;;;;;;;5050277;28;19931;-81
2022/01/15 10:20:10;;;;;;;;;;;;;;;;;;5052049;28;19921;-81
2022/01/15 10:22:50;;;;;;;;;;;;;;;;;;5053893;28;19978;-80
2022/01/15 10:25:19;;;;;;;;;;;;;;;;;;5050829;28;19925;-80
2022/01/15 10:27:52;;;;;;;;;;;;;;;;;;5050281;28;20278;-80
2022/01/15 10:30:20;;;;;;;;;;;;;;;;;;5052403;28;20460;-80
2022/01/15 10:32:55;;;;;;;;;;;;;;;;;;5052233;28;20007;-80
2022/01/15 10:35:22;;;;;;;;;;;;;;;;;;5053935;28;20363;-80
2022/01/15 10:37:50;;;;;;;;;;;;;;;;;;5047634;28;19916;-80
2022/01/15 10:40:16;;;;;;;;;;;;;;;;;;5053961;28;19927;-80
2022/01/15 10:42:41;;;;;;;;;;;;;;;;;;5052159;28;20259;-79
2022/01/15 10:45:11;;;;;;;;;;;;;;;;;;5050922;28;19924;-78
2022/01/15 10:47:42;;;;;;;;;;;;;;;;;;5052058;28;21053;-77
2022/01/15 10:50:08;;;;;;;;;;;;;;;;;;5050640;28;19921;-77
2022/01/15 10:52:33;;;;;;;;;;;;;;;;;;5047916;28;19920;-77
2022/01/15 10:55:12;;;;;;;;;;;;;;;;;;5047785;28;19974;-78
2022/01/15 10:57:37;;;;;;;;;;;;;;;;;;5045835;28;20352;-76
2022/01/15 11:00:39;;;;;;;;;;;;;;;;;;5050083;28;19924;-77
2022/01/15 11:03:11;;;;;;;;;;;;;;;;;;5052890;28;19916;-80
2022/01/15 11:05:52;;;;;;;;;;;;;;;;;;5054769;28;20242;-81
2022/01/15 11:08:21;;;;;;;;;;;;;;;;;;5056141;28;19971;-82
2022/01/15 11:10:46;;;;;;;;;;;;;;;;;;5034029;28;20239;-82
2022/01/15 11:13:14;;;;;;;;;;;;;;;;;;5056621;28;19917;-81
2022/01/15 11:15:40;;;;;;;;;;;;;;;;;;5036697;28;19917;-80
2022/01/15 11:18:07;;;;;;;;;;;;;;;;;;5055340;28;20388;-80
2022/01/15 11:20:33;;;;;;;;;;;;;;;;;;5053565;28;19917;-87
2022/01/15 11:23:02;;;;;;;;;;;;;;;;;;5053920;28;19917;-89
2022/01/15 11:25:28;;;;;;;;;;;;;;;;;;5060069;28;19930;-83
2022/01/15 11:27:53;;;;;;;;;;;;;;;;;;5050040;28;19920;-82
2022/01/15 11:30:19;;;;;;;;;;;;;;;;;;5052439;28;19974;-85
2022/01/15 11:33:02;;;;;;;;;;;;;;;;;;5050045;28;19924;-85
2022/01/15 11:35:40;;;;;;;;;;;;;;;;;;5045961;28;19928;-83
2022/01/15 11:38:06;;;;;;;;;;;;;;;;;;5054803;28;19924;-85
2022/01/15 11:40:32;;;;;;;;;;;;;;;;;;5048846;28;20518;-86
2022/01/15 11:43:35;;;;;;;;;;;;;;;;;;5054316;28;19920;-80
2022/01/15 11:46:28;;;;;;;;;;;;;;;;;;5035110;28;19921;-84
2022/01/15 11:49:12;;;;;;;;;;;;;;;;;;5028171;28;19956;-85
2022/01/15 11:51:40;;;;;;;;;;;;;;;;;;5025293;28;19932;-81
2022/01/15 11:54:11;;;;;;;;;;;;;;;;;;5017172;28;19960;-84
2022/01/15 11:56:38;;;;;;;;;;;;;;;;;;5002103;28;19993;-83
2022/01/15 11:59:21;;;;;;;;;;;;;;;;;;5002053;28;19991;-86
2022/01/15 12:01:47;;;;;;;;;;;;;;;;;;5027109;28;20007;-86
2022/01/15 12:04:30;;;;;;;;;;;;;;;;;;5032706;28;20301;-83
2022/01/15 12:07:05;;;;;;;;;;;;;;;;;;5015553;28;20007;-87
2022/01/15 12:09:30;;;;;;;;;;;;;;;;;;5032513;28;20331;-87
2022/01/15 12:11:55;;;;;;;;;;;;;;;;;;5029594;28;19928;-83
2022/01/15 12:14:40;;;;;;;;;;;;;;;;;;5028237;28;19921;-84
2022/01/15 12:17:24;;;;;;;;;;;;;;;;;;5034221;28;19963;-83
2022/01/15 12:19:50;;;;;;;;;;;;;;;;;;5054993;28;19970;-84
2022/01/15 12:22:34;;;;;;;;;;;;;;;;;;5054023;28;19921;-81
2022/01/15 12:25:00;;;;;;;;;;;;;;;;;;5055030;28;20253;-81
2022/01/15 12:27:26;;;;;;;;;;;;;;;;;;5044399;28;19921;-82
2022/01/15 12:29:57;;;;;;;;;;;;;;;;;;5048439;28;19992;-84
2022/01/15 12:32:32;;;;;;;;;;;;;;;;;;5046285;28;20427;-84
2022/01/15 12:35:02;;;;;;;;;;;;;;;;;;5041816;28;19920;-78
2022/01/15 12:37:27;;;;;;;;;;;;;;;;;;5034013;28;20291;-79
2022/01/15 12:40:04;;;;;;;;;;;;;;;;;;5046720;28;19963;-80
2022/01/15 12:42:35;;;;;;;;;;;;;;;;;;5047945;28;20031;-80
2022/01/15 12:45:18;;;;;;;;;;;;;;;;;;5047835;28;20349;-81
2022/01/15 12:47:47;;;;;;;;;;;;;;;;;;5046349;28;20235;-81
2022/01/15 12:50:12;;;;;;;;;;;;;;;;;;5044012;28;19917;-78
2022/01/15 12:52:40;;;;;;;;;;;;;;;;;;5046662;28;19928;-77
2022/01/15 12:55:06;;;;;;;;;;;;;;;;;;5047396;28;19979;-77
2022/01/15 12:57:35;;;;;;;;;;;;;;;;;;5045370;28;20362;-78
2022/01/15 13:00:03;;;;;;;;;;;;;;;;;;5048507;28;19920;-77
2022/01/15 13:02:28;;;;;;;;;;;;;;;;;;5032393;28;19932;-78
2022/01/15 13:05:03;;;;;;;;;;;;;;;;;;5045245;28;19975;-78
2022/01/15 13:07:50;;;;;;;;;;;;;;;;;;5042477;28;19960;-78
2022/01/15 13:10:32;;;;;;;;;;;;;;;;;;5047661;28;19974;-77
2022/01/15 13:13:00;;;;;;;;;;;;;;;;;;5057259;28;19924;-78
2022/01/15 13:15:38;;;;;;;;;;;;;;;;;;5040486;28;19925;-78
2022/01/15 13:18:10;;;;;;;;;;;;;;;;;;5046809;28;20372;-78
2022/01/15 13:21:30;;;;;;;;;;;;;;;;;;;;;
2022/01/15 13:24:32;;;;;;;;;;;;;;;;;;5039723;28;19923;-76
2022/01/15 13:27:01;;;;;;;;;;;;;;;;;;5057223;28;19925;-76
2022/01/15 13:29:38;;;;;;;;;;;;;;;;;;5053917;28;19917;-76
2022/01/15 13:32:03;;;;;;;;;;;;;;;;;;5050906;28;20384;-77
2022/01/15 13:34:34;;;;;;;;;;;;;;;;;;5035863;28;19916;-82
2022/01/15 13:37:06;;;;;;;;;;;;;;;;;;5050504;28;20345;-81
2022/01/15 13:39:33;;;;;;;;;;;;;;;;;;5052801;28;19952;-81
2022/01/15 13:42:00;;;;;;;;;;;;;;;;;;5053414;28;19917;-81
2022/01/15 13:44:34;;;;;;;;;;;;;;;;;;5049428;28;19925;-82
2022/01/15 13:47:21;;;;;;;;;;;;;;;;;;5044182;28;19920;-80
2022/01/15 13:55:27;;;;;;;;;;;;;;;;;;5050574;28;19924;-82
2022/01/15 13:57:58;;;;;;;;;;;;;;;;;;5044375;28;19975;-79
2022/01/15 14:00:23;;;;;;;;;;;;;;;;;;5044119;28;19951;-79
2022/01/15 14:02:57;;;;;;;;;;;;;;;;;;5047670;28;19917;-80
2022/01/15 14:05:24;;;;;;;;;;;;;;;;;;5044760;28;20007;-79
2022/01/15 14:07:50;;;;;;;;;;;;;;;;;;5044498;28;19971;-79
2022/01/15 14:10:20;;;;;;;;;;;;;;;;;;5042702;28;19948;-80
2022/01/15 14:12:46;;;;;;;;;;;;;;;;;;5043217;28;19940;-81
2022/01/15 14:15:34;;;;;;;;;;;;;;;;;;5047879;28;19925;-81
2022/01/15 14:18:08;;;;;;;;;;;;;;;;;;5059654;28;19993;-86
2022/01/15 14:20:55;;;;;;;;;;;;;;;;;;5062371;28;19975;-83
2022/01/15 14:23:30;;;;;;;;;;;;;;;;;;5037734;28;19927;-80
2022/01/15 14:25:56;;;;;;;;;;;;;;;;;;5049989;28;20462;-79
2022/01/15 14:28:23;;;;;;;;;;;;;;;;;;5050543;28;19917;-77
2022/01/15 14:30:50;;;;;;;;;;;;;;;;;;5051239;28;19916;-78
2022/01/15 14:33:15;;;;;;;;;;;;;;;;;;5055492;28;20436;-80
2022/01/15 14:35:42;;;;;;;;;;;;;;;;;;5052744;28;19921;-79
2022/01/15 14:38:07;;;;;;;;;;;;;;;;;;5055099;28;19967;-80
2022/01/15 14:40:32;;;;;;;;;;;;;;;;;;5056220;28;19964;-83
2022/01/15 14:43:00;;;;;;;;;;;;;;;;;;5037186;28;19948;-82
2022/01/15 14:45:25;;;;;;;;;;;;;;;;;;5054996;28;20345;-84
2022/01/15 14:47:51;;;;;;;;;;;;;;;;;;5056656;28;19921;-81
2022/01/15 14:50:29;;;;;;;;;;;;;;;;;;5035593;28;19928;-81
2022/01/15 14:52:57;;;;;;;;;;;;;;;;;;5048771;28;19928;-81
2022/01/15 14:55:22;;;;;;;;;;;;;;;;;;5055896;28;20004;-80
2022/01/15 14:57:47;;;;;;;;;;;;;;;;;;5037725;28;20019;-78
2022/01/15 15:00:13;;;;;;;;;;;;;;;;;;5047287;28;20007;-80
2022/01/15 15:02:41;;;;;;;;;;;;;;;;;;5050600;28;20444;-81
2022/01/15 15:05:06;;;;;;;;;;;;;;;;;;5056268;28;19912;-83
2022/01/15 15:07:34;;;;;;;;;;;;;;;;;;5053877;28;20349;-82
2022/01/15 15:10:00;;;;;;;;;;;;;;;;;;5054618;28;19956;-78
2022/01/15 15:13:07;;;;;;;;;;;;;;;;;;5054856;28;20005;-79
2022/01/15 15:15:16;;;;;;;;;;;;;;;;;;5041705;28;19948;-81
2022/01/15 15:17:41;;;;;;;;;;;;;;;;;;5050733;28;20004;-81
2022/01/15 15:20:07;;;;;;;;;;;;;;;;;;5051108;28;20000;-80
2022/01/15 15:23:11;;;;;;;;;;;;;;;;;;5045414;28;19912;-80
2022/01/15 15:25:39;;;;;;;;;;;;;;;;;;4987379;28;19918;-78
2022/01/15 15:28:07;;;;;;;;;;;;;;;;;;4993821;28;19969;-80
2022/01/15 15:30:37;;;;;;;;;;;;;;;;;;4993284;28;19949;-81
2022/01/15 15:33:02;;;;;;;;;;;;;;;;;;4991467;28;19917;-79
2022/01/15 15:35:27;;;;;;;;;;;;;;;;;;4955760;28;20012;-79
2022/01/15 15:37:55;;;;;;;;;;;;;;;;;;4987822;28;19925;-80
2022/01/15 15:40:23;;;;;;;;;;;;;;;;;;4993603;28;19984;-78
2022/01/15 15:42:48;;;;;;;;;;;;;;;;;;4992495;28;19933;-82
2022/01/15 15:45:13;;;;;;;;;;;;;;;;;;4960345;28;19913;-79
2022/01/15 15:47:39;;;;;;;;;;;;;;;;;;4990755;28;19985;-80
2022/01/15 15:50:04;;;;;;;;;;;;;;;;;;4980129;28;20248;-81
2022/01/15 15:52:29;;;;;;;;;;;;;;;;;;4993395;28;19945;-78
2022/01/15 15:54:56;;;;;;;;;;;;;;;;;;4993792;28;19949;-80
2022/01/15 15:57:22;;;;;;;;;;;;;;;;;;4993374;28;19918;-80
2022/01/15 15:59:48;;;;;;;;;;;;;;;;;;5030293;28;19926;-80
2022/01/15 16:02:13;;;;;;;;;;;;;;;;;;5047320;28;19917;-81
2022/01/15 16:04:38;;;;;;;;;;;;;;;;;;5053681;28;19928;-80
2022/01/15 16:07:04;;;;;;;;;;;;;;;;;;5054535;28;20298;-80
2022/01/15 16:09:29;;;;;;;;;;;;;;;;;;5052079;28;19924;-80
2022/01/15 16:11:54;;;;;;;;;;;;;;;;;;5051833;28;19920;-80
2022/01/15 16:14:20;;;;;;;;;;;;;;;;;;5052874;28;19971;-81
2022/01/15 16:16:45;;;;;;;;;;;;;;;;;;5053949;28;20273;-80
2022/01/15 16:19:10;;;;;;;;;;;;;;;;;;5033669;28;19916;-80
2022/01/15 16:21:35;;;;;;;;;;;;;;;;;;5052954;28;19924;-81
2022/01/15 16:24:01;;;;;;;;;;;;;;;;;;5053219;28;19928;-82
2022/01/15 16:26:38;;;;;;;;;;;;;;;;;;5051921;28;20361;-78
2022/01/15 16:29:04;;;;;;;;;;;;;;;;;;5053262;28;19920;-77
2022/01/15 16:31:29;;;;;;;;;;;;;;;;;;5054015;28;19916;-79
2022/01/15 16:33:54;;;;;;;;;;;;;;;;;;5052932;28;19912;-78
2022/01/15 16:36:20;;;;;;;;;;;;;;;;;;5053190;28;20011;-79
2022/01/15 16:38:45;;;;;;;;;;;;;;;;;;5054820;28;19917;-77
2022/01/15 16:41:13;;;;;;;;;;;;;;;;;;5054053;28;19913;-77
2022/01/15 16:43:39;;;;;;;;;;;;;;;;;;5055592;28;20300;-77
2022/01/15 16:46:04;;;;;;;;;;;;;;;;;;5054479;28;20008;-79
2022/01/15 16:48:29;;;;;;;;;;;;;;;;;;5055587;28;20334;-78
2022/01/15 16:50:55;;;;;;;;;;;;;;;;;;5055504;28;19927;-79
2022/01/15 16:53:20;;;;;;;;;;;;;;;;;;5054587;28;19917;-80
2022/01/15 16:55:46;;;;;;;;;;;;;;;;;;5050201;28;20603;-80
2022/01/15 16:58:13;;;;;;;;;;;;;;;;;;5052244;28;19916;-79
2022/01/15 17:00:39;;;;;;;;;;;;;;;;;;5053279;28;19916;-80
2022/01/15 17:03:04;;;;;;;;;;;;;;;;;;5049190;28;20019;-81
2022/01/15 17:05:29;;;;;;;;;;;;;;;;;;5051134;28;19928;-84
2022/01/15 17:07:55;;;;;;;;;;;;;;;;;;5035657;28;20404;-84
2022/01/15 17:10:20;;;;;;;;;;;;;;;;;;5052743;28;19917;-82
2022/01/15 17:12:51;;;;;;;;;;;;;;;;;;5049748;28;19924;-82
2022/01/15 17:15:41;;;;;;;;;;;;;;;;;;5049574;28;19917;-81
2022/01/15 17:18:06;;;;;;;;;;;;;;;;;;5048602;28;19954;-82
2022/01/15 17:20:34;;;;;;;;;;;;;;;;;;5027666;28;20015;-81
2022/01/15 17:23:07;;;;;;;;;;;;;;;;;;5046016;28;19982;-86